Time;durP1;ratioP1;P1;durP2;ratioP2;P2;SDS_P1;SDS_P2;PMS_P1;PMS_P2;Temp;Humidity;BMP_temperature;BMP_pressure;BME280_temperature;BME280_humidity;BME280_pressure;Samples;Min_cycle;Max_cycle;Signal;HPM_P1;HPM_P2
2022/08/09 00:04:12;;;;;;;7.95;5.80;;;;;;;;;;5111127;27;20462;-62
2022/08/09 00:06:38;;;;;;;9.07;5.93;;;;;;;;;;5111356;28;20027;-63
2022/08/09 00:09:21;;;;;;;9.45;5.93;;;;;;;;;;5131873;27;20116;-61
2022/08/09 00:11:47;;;;;;;9.02;5.80;;;;;;;;;;5092887;28;20027;-61
2022/08/09 00:15:02;;;;;;;13.63;6.10;;;;;;;;;;5111465;27;20450;-62
2022/08/09 00:17:28;;;;;;;10.13;5.72;;;;;;;;;;5110906;28;20464;-62
2022/08/09 00:19:54;;;;;;;9.77;6.13;;;;;;;;;;5111200;28;20476;-62
2022/08/09 00:22:20;;;;;;;10.63;6.13;;;;;;;;;;5111369;28;20028;-62
2022/08/09 00:24:47;;;;;;;10.57;6.18;;;;;;;;;;5109439;28;20020;-62
2022/08/09 00:31:36;;;;;;;10.00;6.22;;;;;;;;;;5111324;27;20393;-62
2022/08/09 00:34:49;;;;;;;9.63;5.95;;;;;;;;;;5071033;28;20410;-62
2022/08/09 00:37:15;;;;;;;9.38;5.82;;;;;;;;;;5070720;28;20108;-62
2022/08/09 00:39:41;;;;;;;9.35;6.15;;;;;;;;;;5069016;28;20021;-62
2022/08/09 00:42:08;;;;;;;8.93;5.45;;;;;;;;;;5070997;28;20029;-62
2022/08/09 00:44:34;;;;;;;9.85;6.03;;;;;;;;;;5070809;28;20059;-62
2022/08/09 00:48:17;;;;;;;8.15;5.30;;;;;;;;;;5131915;27;20495;-62
2022/08/09 00:50:43;;;;;;;11.00;5.82;;;;;;;;;;5093047;28;20070;-62
2022/08/09 00:53:11;;;;;;;9.05;5.60;;;;;;;;;;5110847;28;20028;-62
2022/08/09 00:55:37;;;;;;;8.32;5.30;;;;;;;;;;5111245;28;20020;-62
2022/08/09 00:58:03;;;;;;;7.13;4.55;;;;;;;;;;5111145;28;20024;-62
2022/08/09 01:01:27;;;;;;;7.07;4.47;;;;;;;;;;5110956;27;20388;-62
2022/08/09 01:04:02;;;;;;;8.95;5.50;;;;;;;;;;5111570;28;20388;-62
2022/08/09 01:06:47;;;;;;;9.55;5.78;;;;;;;;;;5111083;28;20381;-62
2022/08/09 01:09:13;;;;;;;8.18;5.38;;;;;;;;;;5109834;28;20035;-62
2022/08/09 01:13:49;;;;;;;9.57;5.60;;;;;;;;;;5111363;27;20397;-61
2022/08/09 01:17:00;;;;;;;9.70;5.50;;;;;;;;;;5111506;27;20492;-61
2022/08/09 01:19:33;;;;;;;8.90;5.90;;;;;;;;;;5127102;28;20019;-61
2022/08/09 01:22:08;;;;;;;10.05;6.15;;;;;;;;;;5126729;28;20031;-62
2022/08/09 01:25:00;;;;;;;9.50;5.85;;;;;;;;;;5111681;28;20020;-61
2022/08/09 01:27:27;;;;;;;10.90;5.55;;;;;;;;;;5102690;28;20044;-61
2022/08/09 01:30:03;;;;;;;8.65;5.47;;;;;;;;;;5110687;28;20024;-63
2022/08/09 01:32:31;;;;;;;9.52;5.50;;;;;;;;;;5126967;28;20511;-62
2022/08/09 01:36:02;;;;;;;9.45;6.18;;;;;;;;;;5111219;27;20454;-64
2022/08/09 01:38:30;;;;;;;8.73;5.43;;;;;;;;;;5111339;28;20486;-63
2022/08/09 01:43:13;;;;;;;7.85;5.35;;;;;;;;;;5111197;27;20435;-62
2022/08/09 01:53:04;;;;;;;9.00;5.25;;;;;;;;;;5071585;28;20437;-62
2022/08/09 01:55:31;;;;;;;8.43;5.63;;;;;;;;;;5069469;28;20405;-62
2022/08/09 01:57:59;;;;;;;7.63;5.07;;;;;;;;;;5069050;28;20032;-62
2022/08/09 02:00:26;;;;;;;8.85;5.75;;;;;;;;;;5070691;28;20048;-62
2022/08/09 02:02:53;;;;;;;8.65;5.45;;;;;;;;;;5070211;28;20031;-62
2022/08/09 02:05:21;;;;;;;8.35;5.32;;;;;;;;;;5070529;28;20031;-63
2022/08/09 02:07:59;;;;;;;8.73;5.65;;;;;;;;;;5069286;28;20043;-62
2022/08/09 02:11:24;;;;;;;10.25;5.88;;;;;;;;;;5070550;27;20383;-62
2022/08/09 02:13:50;;;;;;;9.70;6.43;;;;;;;;;;5069496;28;20064;-62
2022/08/09 02:16:16;;;;;;;8.75;5.20;;;;;;;;;;5069367;28;20444;-62
2022/08/09 02:20:03;;;;;;;14.07;5.82;;;;;;;;;;5111607;27;20458;-62
2022/08/09 02:22:52;;;;;;;8.95;6.43;;;;;;;;;;5111485;28;20024;-63
2022/08/09 02:25:23;;;;;;;9.82;7.00;;;;;;;;;;5099172;28;20480;-63
2022/08/09 02:27:54;;;;;;;10.02;6.30;;;;;;;;;;5111736;28;20020;-63
2022/08/09 02:32:37;;;;;;;9.07;6.15;;;;;;;;;;5030547;28;20760;-62
2022/08/09 02:35:06;;;;;;;9.15;5.63;;;;;;;;;;5031005;28;20026;-62
2022/08/09 02:37:32;;;;;;;10.13;5.93;;;;;;;;;;5029511;28;20017;-62
2022/08/09 02:40:00;;;;;;;9.02;5.35;;;;;;;;;;5029181;28;20437;-62
2022/08/09 02:45:13;;;;;;;8.82;5.93;;;;;;;;;;5111536;27;20392;-62
2022/08/09 02:51:26;;;;;;;9.38;6.22;;;;;;;;;;5112061;27;20729;-61
2022/08/09 02:53:56;;;;;;;11.00;5.95;;;;;;;;;;5110888;28;20107;-62
2022/08/09 03:00:01;;;;;;;10.98;6.47;;;;;;;;;;5111210;27;20927;-62
2022/08/09 03:02:28;;;;;;;9.00;6.20;;;;;;;;;;5127075;28;20031;-62
2022/08/09 03:05:37;;;;;;;9.00;6.07;;;;;;;;;;5111433;27;20964;-62
2022/08/09 03:13:06;;;;;;;8.82;5.53;;;;;;;;;;5111304;27;20385;-62
2022/08/09 03:16:20;;;;;;;11.27;5.88;;;;;;;;;;5111976;27;20393;-61
2022/08/09 03:18:46;;;;;;;12.07;6.53;;;;;;;;;;5111337;28;20038;-61
2022/08/09 03:21:41;;;;;;;10.02;6.18;;;;;;;;;;5110982;27;20768;-61
2022/08/09 03:24:07;;;;;;;8.48;5.75;;;;;;;;;;5111356;28;20100;-61
2022/08/09 03:27:44;;;;;;;9.77;6.07;;;;;;;;;;5111604;27;20447;-62
2022/08/09 03:30:11;;;;;;;11.25;6.63;;;;;;;;;;5127087;28;20024;-62
2022/08/09 03:34:27;;;;;;;9.48;6.00;;;;;;;;;;5111468;27;20422;-62
2022/08/09 03:39:02;;;;;;;9.50;5.57;;;;;;;;;;5111507;27;20454;-62
2022/08/09 03:43:36;;;;;;;10.40;6.28;;;;;;;;;;5173451;27;20121;-62
2022/08/09 03:46:02;;;;;;;13.10;7.32;;;;;;;;;;5152518;27;20034;-62
2022/08/09 03:48:29;;;;;;;12.52;6.13;;;;;;;;;;5152582;27;20019;-63
2022/08/09 03:50:56;;;;;;;11.27;6.50;;;;;;;;;;5152366;27;20030;-63
2022/08/09 03:57:15;;;;;;;10.73;6.72;;;;;;;;;;5111169;27;20482;-63
2022/08/09 04:04:05;;;;;;;9.55;5.35;;;;;;;;;;5111084;27;20400;-62
2022/08/09 04:06:58;;;;;;;8.60;5.50;;;;;;;;;;5052199;28;20483;-62
2022/08/09 04:10:39;;;;;;;10.60;6.25;;;;;;;;;;5111246;27;20422;-63
2022/08/09 04:13:08;;;;;;;9.93;5.95;;;;;;;;;;5111317;28;20023;-63
2022/08/09 04:15:35;;;;;;;10.35;5.80;;;;;;;;;;5109955;28;20069;-63
2022/08/09 04:18:01;;;;;;;8.40;5.43;;;;;;;;;;5109631;28;20468;-63
2022/08/09 04:20:28;;;;;;;9.07;5.20;;;;;;;;;;5109879;28;20028;-63
2022/08/09 04:22:54;;;;;;;10.18;5.03;;;;;;;;;;5109881;28;20541;-62
2022/08/09 04:26:42;;;;;;;7.63;4.88;;;;;;;;;;5111602;27;20446;-63
2022/08/09 04:29:09;;;;;;;6.95;4.53;;;;;;;;;;5110179;28;20027;-64
2022/08/09 04:33:17;;;;;;;8.82;4.78;;;;;;;;;;5111377;27;20477;-62
2022/08/09 04:35:44;;;;;;;8.02;5.13;;;;;;;;;;5127138;28;20420;-64
2022/08/09 04:38:10;;;;;;;8.00;5.05;;;;;;;;;;5110822;28;20031;-64
2022/08/09 04:40:48;;;;;;;8.45;4.90;;;;;;;;;;5111281;28;20019;-62
2022/08/09 04:44:22;;;;;;;8.20;4.38;;;;;;;;;;5111703;27;20401;-62
2022/08/09 04:49:52;;;;;;;6.68;3.90;;;;;;;;;;5111826;27;20888;-62
2022/08/09 04:52:19;;;;;;;7.43;4.05;;;;;;;;;;5110983;28;20024;-62
2022/08/09 04:54:46;;;;;;;9.35;4.35;;;;;;;;;;5111314;28;20027;-62
2022/08/09 04:57:13;;;;;;;9.13;4.15;;;;;;;;;;5109971;28;20024;-63
2022/08/09 04:59:39;;;;;;;6.28;3.90;;;;;;;;;;5110915;28;20028;-63
2022/08/09 05:02:05;;;;;;;9.63;3.90;;;;;;;;;;5109768;28;20016;-63
2022/08/09 05:06:18;;;;;;;8.15;4.50;;;;;;;;;;5111034;27;20396;-62
2022/08/09 05:08:44;;;;;;;8.75;5.28;;;;;;;;;;5111344;28;20020;-64
2022/08/09 05:11:11;;;;;;;10.30;4.70;;;;;;;;;;5111360;28;20032;-64
2022/08/09 05:13:37;;;;;;;7.03;4.15;;;;;;;;;;5109563;28;20024;-63
2022/08/09 05:16:03;;;;;;;7.03;4.00;;;;;;;;;;5111172;28;20353;-64
2022/08/09 05:19:30;;;;;;;7.78;4.30;;;;;;;;;;5111959;27;20433;-61
2022/08/09 05:21:57;;;;;;;7.07;4.07;;;;;;;;;;5110977;28;20053;-62
2022/08/09 05:25:26;;;;;;;6.80;3.30;;;;;;;;;;5111885;27;20419;-63
2022/08/09 05:29:51;;;;;;;8.38;3.85;;;;;;;;;;5070848;28;20430;-61
2022/08/09 05:34:19;;;;;;;8.10;3.92;;;;;;;;;;5111597;27;20458;-63
2022/08/09 05:38:55;;;;;;;5.70;3.67;;;;;;;;;;5111509;27;20404;-61
2022/08/09 05:41:21;;;;;;;5.63;3.72;;;;;;;;;;5109734;28;20055;-62
2022/08/09 05:43:56;;;;;;;6.70;3.30;;;;;;;;;;5111849;27;20397;-63
2022/08/09 05:48:27;;;;;;;5.47;2.90;;;;;;;;;;5102917;27;20422;-63
2022/08/09 05:50:53;;;;;;;6.57;3.40;;;;;;;;;;5070792;28;20029;-62
2022/08/09 05:53:19;;;;;;;12.02;4.13;;;;;;;;;;5071036;28;20035;-63
2022/08/09 05:55:45;;;;;;;6.38;3.03;;;;;;;;;;5070305;28;20017;-62
2022/08/09 05:58:12;;;;;;;6.50;3.03;;;;;;;;;;5069367;28;20021;-63
2022/08/09 06:02:06;;;;;;;5.38;3.10;;;;;;;;;;5111379;27;20384;-62
2022/08/09 06:04:32;;;;;;;10.48;3.25;;;;;;;;;;5111353;28;20028;-63
2022/08/09 06:06:58;;;;;;;5.97;2.92;;;;;;;;;;5111339;28;20469;-62
2022/08/09 06:11:27;;;;;;;8.88;2.78;;;;;;;;;;5106369;27;20898;-63
2022/08/09 06:13:53;;;;;;;7.82;2.60;;;;;;;;;;5090593;28;20024;-63
2022/08/09 06:18:37;;;;;;;7.53;3.20;;;;;;;;;;5152304;27;20107;-63
2022/08/09 06:21:05;;;;;;;8.45;3.85;;;;;;;;;;5131581;28;20027;-64
2022/08/09 06:23:32;;;;;;;6.30;3.35;;;;;;;;;;5131187;28;20136;-62
2022/08/09 06:25:58;;;;;;;5.40;3.22;;;;;;;;;;5131460;28;20028;-62
2022/08/09 06:28:24;;;;;;;7.10;3.17;;;;;;;;;;5131499;28;20411;-63
2022/08/09 06:30:50;;;;;;;6.55;3.28;;;;;;;;;;5112553;28;20070;-62
2022/08/09 06:33:16;;;;;;;8.60;3.47;;;;;;;;;;5131435;28;20046;-62
2022/08/09 06:35:49;;;;;;;5.72;3.40;;;;;;;;;;5119049;28;20020;-61
2022/08/09 06:38:15;;;;;;;;;;;;;;;;;;5110645;28;20054;-61
2022/08/09 06:41:17;;;;;;;5.80;2.80;;;;;;;;;;5111109;27;20314;-63
2022/08/09 06:46:15;;;;;;;8.63;3.55;;;;;;;;;;5110857;27;20416;-63
2022/08/09 06:48:42;;;;;;;7.13;3.20;;;;;;;;;;5126963;28;20444;-62
2022/08/09 06:51:08;;;;;;;7.75;3.60;;;;;;;;;;5126421;28;20119;-62
2022/08/09 06:53:35;;;;;;;6.70;3.00;;;;;;;;;;5111146;28;20028;-63
2022/08/09 06:56:02;;;;;;;7.45;3.42;;;;;;;;;;5111089;28;20020;-61
2022/08/09 06:58:28;;;;;;;5.45;3.17;;;;;;;;;;5110722;28;20020;-63
2022/08/09 07:00:54;;;;;;;7.50;3.10;;;;;;;;;;5107392;28;20444;-63
2022/08/09 07:03:21;;;;;;;8.63;3.88;;;;;;;;;;5110753;28;20054;-64
2022/08/09 07:08:13;;;;;;;8.05;3.90;;;;;;;;;;5111178;27;20424;-63
2022/08/09 07:13:13;;;;;;;4.70;2.75;;;;;;;;;;5131350;27;20313;-63
2022/08/09 07:15:39;;;;;;;6.20;3.03;;;;;;;;;;5111057;28;20032;-63
2022/08/09 07:18:05;;;;;;;7.15;3.40;;;;;;;;;;5111093;28;20024;-63
2022/08/09 07:20:32;;;;;;;5.18;2.60;;;;;;;;;;5110300;28;20027;-64
2022/08/09 07:23:26;;;;;;;7.10;3.28;;;;;;;;;;5111523;27;20884;-64
2022/08/09 07:25:52;;;;;;;9.05;3.50;;;;;;;;;;5111026;28;20391;-63
2022/08/09 07:28:19;;;;;;;5.43;2.90;;;;;;;;;;5110549;28;20024;-63
2022/08/09 07:30:45;;;;;;;6.03;2.90;;;;;;;;;;5110883;28;20435;-63
2022/08/09 07:33:12;;;;;;;6.53;3.05;;;;;;;;;;5110781;28;20428;-63
2022/08/09 07:35:38;;;;;;;5.13;2.97;;;;;;;;;;5110335;28;20059;-63
2022/08/09 07:38:04;;;;;;;5.70;3.20;;;;;;;;;;5126466;28;20031;-63
2022/08/09 07:41:40;;;;;;;5.05;2.92;;;;;;;;;;5110787;27;20912;-63
2022/08/09 07:44:06;;;;;;;5.90;2.75;;;;;;;;;;5110816;28;20050;-63
2022/08/09 07:46:32;;;;;;;6.43;3.22;;;;;;;;;;5126385;28;20555;-62
2022/08/09 07:48:58;;;;;;;5.78;3.42;;;;;;;;;;5110384;28;20435;-63
2022/08/09 07:51:24;;;;;;;4.30;2.50;;;;;;;;;;5110995;28;20024;-63
2022/08/09 07:54:04;;;;;;;7.57;3.28;;;;;;;;;;5110929;28;20031;-63
2022/08/09 07:56:30;;;;;;;5.32;2.92;;;;;;;;;;5125986;28;20027;-63
2022/08/09 07:58:56;;;;;;;4.80;2.78;;;;;;;;;;5111429;28;20028;-63
2022/08/09 08:01:22;;;;;;;8.02;2.78;;;;;;;;;;5110285;28;20032;-63
2022/08/09 08:03:48;;;;;;;5.97;2.67;;;;;;;;;;5110728;28;20084;-63
2022/08/09 08:06:15;;;;;;;6.90;3.72;;;;;;;;;;5123947;28;20032;-62
2022/08/09 08:08:41;;;;;;;3.97;2.38;;;;;;;;;;5088447;28;20574;-63
2022/08/09 08:11:07;;;;;;;5.57;3.17;;;;;;;;;;5090170;28;20380;-62
2022/08/09 08:13:33;;;;;;;5.10;2.67;;;;;;;;;;5090110;28;20105;-62
2022/08/09 08:15:59;;;;;;;11.77;3.10;;;;;;;;;;5088489;28;20035;-63
2022/08/09 08:18:25;;;;;;;4.78;2.63;;;;;;;;;;5089807;28;20392;-63
2022/08/09 08:20:51;;;;;;;6.38;2.65;;;;;;;;;;5089610;28;20055;-64
2022/08/09 08:23:19;;;;;;;5.70;2.53;;;;;;;;;;5088319;28;20027;-63
2022/08/09 08:25:46;;;;;;;6.35;2.78;;;;;;;;;;5089958;28;20354;-63
2022/08/09 08:28:13;;;;;;;5.28;2.67;;;;;;;;;;5089777;28;20423;-62
2022/08/09 08:30:39;;;;;;;10.18;2.85;;;;;;;;;;5089326;28;20028;-64
2022/08/09 08:33:06;;;;;;;4.80;2.72;;;;;;;;;;5089785;28;20025;-62
2022/08/09 08:35:34;;;;;;;5.57;2.80;;;;;;;;;;5089839;28;20051;-63
2022/08/09 08:38:00;;;;;;;8.05;2.58;;;;;;;;;;5089177;28;20484;-63
2022/08/09 08:40:26;;;;;;;4.57;2.65;;;;;;;;;;5088173;28;20055;-63
2022/08/09 08:42:53;;;;;;;4.25;2.70;;;;;;;;;;5089559;28;20024;-63
2022/08/09 08:45:45;;;;;;;7.50;2.63;;;;;;;;;;5089161;28;20036;-63
2022/08/09 08:48:12;;;;;;;6.60;3.10;;;;;;;;;;5089372;28;20480;-63
2022/08/09 08:50:39;;;;;;;5.28;2.60;;;;;;;;;;5087712;28;20032;-63
2022/08/09 08:53:05;;;;;;;6.55;2.85;;;;;;;;;;5074220;28;20490;-64
2022/08/09 08:55:31;;;;;;;4.88;2.63;;;;;;;;;;5076037;28;20077;-64
2022/08/09 08:57:57;;;;;;;5.18;2.97;;;;;;;;;;5074104;28;20117;-63
2022/08/09 09:00:23;;;;;;;5.80;2.85;;;;;;;;;;5074548;28;20029;-63
2022/08/09 09:02:50;;;;;;;6.05;2.95;;;;;;;;;;5075650;28;20806;-64
2022/08/09 09:05:22;;;;;;;6.63;3.42;;;;;;;;;;5074147;28;20016;-63
2022/08/09 09:07:51;;;;;;;;;;;;;;;;;;5074887;28;20025;-64
2022/08/09 09:10:18;;;;;;;5.90;3.03;;;;;;;;;;5075887;28;19966;-63
2022/08/09 09:12:45;;;;;;;7.22;3.30;;;;;;;;;;5075074;28;20098;-62
2022/08/09 09:15:12;;;;;;;4.65;2.58;;;;;;;;;;5075588;28;20384;-63
2022/08/09 09:17:38;;;;;;;8.25;3.00;;;;;;;;;;5075937;28;20372;-64
2022/08/09 09:20:11;;;;;;;6.90;2.90;;;;;;;;;;5070128;28;20048;-62
2022/08/09 09:22:50;;;;;;;7.55;3.53;;;;;;;;;;5083106;28;20039;-63
2022/08/09 09:25:35;;;;;;;8.77;3.03;;;;;;;;;;5095779;28;20483;-64
2022/08/09 09:28:02;;;;;;;4.63;2.60;;;;;;;;;;5074480;28;20067;-63
2022/08/09 09:30:28;;;;;;;5.07;2.60;;;;;;;;;;5073800;28;20478;-64
2022/08/09 09:33:01;;;;;;;6.28;3.15;;;;;;;;;;5072918;28;20033;-64
2022/08/09 09:35:28;;;;;;;6.15;2.88;;;;;;;;;;5074975;28;20103;-64
2022/08/09 09:37:54;;;;;;;6.38;2.60;;;;;;;;;;5075172;28;20021;-64
2022/08/09 09:40:20;;;;;;;5.78;2.70;;;;;;;;;;5074394;28;20048;-64
2022/08/09 09:42:56;;;;;;;4.32;2.35;;;;;;;;;;5075033;28;20114;-64
2022/08/09 09:45:22;;;;;;;3.72;2.15;;;;;;;;;;5075036;28;20024;-64
2022/08/09 09:47:48;;;;;;;5.32;2.53;;;;;;;;;;5074656;28;20029;-64
2022/08/09 09:50:21;;;;;;;5.15;2.50;;;;;;;;;;5073974;28;20027;-64
2022/08/09 09:52:51;;;;;;;3.70;2.20;;;;;;;;;;5075132;28;20431;-64
2022/08/09 09:55:17;;;;;;;4.45;2.30;;;;;;;;;;5073228;28;20469;-64
2022/08/09 09:57:56;;;;;;;4.55;2.47;;;;;;;;;;5074838;28;20453;-63
2022/08/09 10:00:25;;;;;;;6.93;2.17;;;;;;;;;;5074542;28;20214;-63
2022/08/09 10:02:51;;;;;;;5.20;2.50;;;;;;;;;;5073739;28;20016;-63
2022/08/09 10:05:17;;;;;;;5.07;2.63;;;;;;;;;;5073419;28;20423;-63
2022/08/09 10:07:43;;;;;;;6.03;2.60;;;;;;;;;;5073387;28;20025;-64
2022/08/09 10:10:10;;;;;;;3.85;2.13;;;;;;;;;;5073983;28;20085;-64
2022/08/09 10:12:37;;;;;;;5.57;2.50;;;;;;;;;;5074362;28;20059;-62
2022/08/09 10:15:07;;;;;;;5.70;2.20;;;;;;;;;;5074012;28;20025;-63
2022/08/09 10:17:34;;;;;;;5.47;2.33;;;;;;;;;;5073088;28;20027;-65
2022/08/09 10:20:01;;;;;;;5.28;2.28;;;;;;;;;;5069973;28;20040;-64
2022/08/09 10:22:35;;;;;;;4.68;2.35;;;;;;;;;;5071917;28;20099;-63
2022/08/09 10:25:03;;;;;;;4.50;2.38;;;;;;;;;;5074380;28;20051;-64
2022/08/09 10:27:30;;;;;;;3.83;2.00;;;;;;;;;;5074258;28;20354;-63
2022/08/09 10:29:56;;;;;;;3.67;2.10;;;;;;;;;;5073836;28;20093;-64
2022/08/09 10:32:23;;;;;;;5.15;2.20;;;;;;;;;;5074156;28;20024;-64
2022/08/09 10:34:49;;;;;;;4.65;2.53;;;;;;;;;;5074166;28;20025;-64
2022/08/09 10:37:17;;;;;;;5.43;2.50;;;;;;;;;;5073619;28;20020;-64
2022/08/09 10:39:43;;;;;;;3.97;2.47;;;;;;;;;;5069245;28;20052;-63
2022/08/09 10:42:09;;;;;;;5.38;2.55;;;;;;;;;;5072850;28;20078;-63
2022/08/09 10:44:36;;;;;;;5.20;2.20;;;;;;;;;;5073220;28;20027;-63
2022/08/09 10:47:12;;;;;;;4.15;2.30;;;;;;;;;;5073668;28;20040;-63
2022/08/09 10:49:46;;;;;;;6.60;2.97;;;;;;;;;;5072758;28;20060;-63
2022/08/09 10:52:31;;;;;;;8.05;3.10;;;;;;;;;;5073415;28;20020;-63
2022/08/09 10:55:02;;;;;;;6.90;2.70;;;;;;;;;;5072162;28;20107;-63
2022/08/09 10:57:35;;;;;;;5.72;2.72;;;;;;;;;;5073315;28;20074;-63
2022/08/09 11:00:21;;;;;;;4.13;2.42;;;;;;;;;;5071928;28;20396;-63
2022/08/09 11:02:47;;;;;;;4.82;2.90;;;;;;;;;;5072500;28;20056;-63
2022/08/09 11:05:15;;;;;;;5.97;3.10;;;;;;;;;;5070735;28;20056;-63
2022/08/09 11:07:41;;;;;;;7.38;3.50;;;;;;;;;;5084617;28;20016;-63
2022/08/09 11:10:07;;;;;;;6.85;4.50;;;;;;;;;;5092343;28;20028;-63
2022/08/09 11:12:33;;;;;;;7.82;3.60;;;;;;;;;;5093326;28;20039;-62
2022/08/09 11:15:20;;;;;;;4.45;2.55;;;;;;;;;;5079262;28;20533;-63
2022/08/09 11:17:48;;;;;;;8.45;3.13;;;;;;;;;;5073361;28;20034;-64
2022/08/09 11:20:15;;;;;;;3.85;2.20;;;;;;;;;;5075487;28;20396;-64
2022/08/09 11:22:41;;;;;;;5.90;2.65;;;;;;;;;;5092368;28;20023;-64
2022/08/09 11:25:09;;;;;;;4.75;2.60;;;;;;;;;;5092887;28;20376;-63
2022/08/09 11:27:37;;;;;;;8.05;3.00;;;;;;;;;;5092971;28;20111;-64
2022/08/09 11:30:13;;;;;;;5.75;2.65;;;;;;;;;;5093574;28;20022;-63
2022/08/09 11:32:39;;;;;;;5.43;3.20;;;;;;;;;;5093193;28;20084;-63
2022/08/09 11:35:18;;;;;;;7.88;3.33;;;;;;;;;;5093496;28;20540;-63
2022/08/09 11:37:45;;;;;;;5.13;2.70;;;;;;;;;;5093253;28;20024;-63
2022/08/09 11:40:13;;;;;;;6.68;2.85;;;;;;;;;;5092720;28;20404;-63
2022/08/09 11:42:50;;;;;;;4.30;2.85;;;;;;;;;;5081525;28;20103;-63
2022/08/09 11:45:22;;;;;;;4.53;2.97;;;;;;;;;;5073184;28;20096;-63
2022/08/09 11:47:49;;;;;;;6.50;2.83;;;;;;;;;;5071434;28;20032;-64
2022/08/09 11:50:15;;;;;;;5.47;2.85;;;;;;;;;;5071836;28;20423;-63
2022/08/09 11:53:01;;;;;;;8.02;2.90;;;;;;;;;;5073154;28;20016;-63
2022/08/09 11:55:34;;;;;;;5.10;2.75;;;;;;;;;;5071279;28;20057;-63
2022/08/09 11:58:01;;;;;;;9.55;3.33;;;;;;;;;;5071692;28;20020;-63
2022/08/09 12:00:29;;;;;;;7.32;3.58;;;;;;;;;;5073128;28;20094;-64
2022/08/09 12:02:55;;;;;;;5.05;2.50;;;;;;;;;;5072646;28;20017;-63
2022/08/09 12:05:22;;;;;;;8.15;3.00;;;;;;;;;;5072915;28;20385;-64
2022/08/09 12:07:48;;;;;;;5.72;2.92;;;;;;;;;;5071286;28;20024;-63
2022/08/09 12:10:14;;;;;;;7.10;3.55;;;;;;;;;;5071632;28;20024;-63
2022/08/09 12:12:45;;;;;;;6.07;3.33;;;;;;;;;;5072780;28;20029;-63
2022/08/09 12:15:19;;;;;;;7.43;3.40;;;;;;;;;;5071101;28;20063;-63
2022/08/09 12:17:47;;;;;;;4.88;2.85;;;;;;;;;;5072856;28;20024;-63
2022/08/09 12:20:14;;;;;;;5.45;3.03;;;;;;;;;;5072894;28;20036;-63
2022/08/09 12:22:41;;;;;;;5.47;2.88;;;;;;;;;;5072474;28;20104;-64
2022/08/09 12:25:14;;;;;;;5.35;2.33;;;;;;;;;;5072927;28;20028;-64
2022/08/09 12:27:41;;;;;;;7.25;3.08;;;;;;;;;;5075258;28;20206;-63
2022/08/09 12:30:07;;;;;;;6.57;2.95;;;;;;;;;;5076369;28;20032;-63
2022/08/09 12:32:34;;;;;;;4.95;2.45;;;;;;;;;;5075185;28;20081;-63
2022/08/09 12:35:02;;;;;;;6.25;2.28;;;;;;;;;;5076454;28;20029;-64
2022/08/09 12:37:32;;;;;;;6.55;2.40;;;;;;;;;;5075851;28;20027;-62
2022/08/09 12:40:00;;;;;;;5.78;2.75;;;;;;;;;;5075964;28;20127;-64
2022/08/09 12:42:27;;;;;;;5.80;2.65;;;;;;;;;;5076262;28;20021;-63
2022/08/09 12:44:54;;;;;;;5.22;2.75;;;;;;;;;;5074417;28;20021;-64
2022/08/09 12:47:20;;;;;;;4.47;2.70;;;;;;;;;;5074874;28;20119;-63
2022/08/09 12:50:15;;;;;;;6.55;2.80;;;;;;;;;;5074890;28;20495;-64
2022/08/09 12:52:39;;;;;;;3.90;2.17;;;;;;;;;;5075964;28;20473;-63
2022/08/09 12:55:08;;;;;;;3.28;2.28;;;;;;;;;;5076124;28;20078;-63
2022/08/09 12:57:39;;;;;;;3.63;2.42;;;;;;;;;;5075431;28;20027;-63
2022/08/09 13:00:20;;;;;;;2.92;1.88;;;;;;;;;;5075904;28;20528;-63
2022/08/09 13:02:54;;;;;;;6.80;2.10;;;;;;;;;;5076124;28;20306;-64
2022/08/09 13:05:22;;;;;;;4.22;2.40;;;;;;;;;;5075667;28;20070;-64
2022/08/09 13:08:07;;;;;;;3.47;2.20;;;;;;;;;;5075954;28;20020;-64
2022/08/09 13:10:43;;;;;;;4.78;2.95;;;;;;;;;;5075967;28;20025;-63
2022/08/09 13:13:09;;;;;;;3.67;2.08;;;;;;;;;;5074211;28;20446;-64
2022/08/09 13:15:35;;;;;;;5.25;2.35;;;;;;;;;;5075905;28;20081;-65
2022/08/09 13:18:02;;;;;;;5.28;2.83;;;;;;;;;;5074484;28;20047;-64
2022/08/09 13:20:33;;;;;;;4.25;1.98;;;;;;;;;;5074305;28;20082;-64
2022/08/09 13:22:59;;;;;;;5.00;2.17;;;;;;;;;;5074425;28;20031;-65
2022/08/09 13:25:26;;;;;;;3.42;2.00;;;;;;;;;;5074142;28;20154;-64
2022/08/09 13:27:52;;;;;;;3.58;2.78;;;;;;;;;;5074341;28;20032;-64
2022/08/09 13:30:19;;;;;;;3.72;1.95;;;;;;;;;;5075582;28;20025;-64
2022/08/09 13:32:52;;;;;;;4.72;2.42;;;;;;;;;;5075301;28;20050;-64
2022/08/09 13:35:20;;;;;;;3.90;2.47;;;;;;;;;;5076010;28;20040;-64
2022/08/09 13:37:47;;;;;;;5.43;2.30;;;;;;;;;;5075309;28;20025;-64
2022/08/09 13:40:13;;;;;;;3.15;1.75;;;;;;;;;;5074703;28;20040;-64
2022/08/09 13:42:40;;;;;;;4.13;1.80;;;;;;;;;;5075429;28;20016;-64
2022/08/09 13:45:07;;;;;;;3.80;2.03;;;;;;;;;;5075412;28;20032;-64
2022/08/09 13:47:34;;;;;;;6.97;2.10;;;;;;;;;;5074900;28;20027;-64
2022/08/09 13:50:00;;;;;;;7.97;2.15;;;;;;;;;;5075133;28;20027;-64
2022/08/09 13:52:26;;;;;;;3.50;2.10;;;;;;;;;;5075227;28;20477;-64
2022/08/09 13:54:53;;;;;;;3.40;1.73;;;;;;;;;;5074674;28;20099;-64
2022/08/09 13:57:19;;;;;;;3.08;1.92;;;;;;;;;;5073737;28;20097;-65
2022/08/09 13:59:45;;;;;;;2.95;2.00;;;;;;;;;;5074881;28;20099;-64
2022/08/09 14:02:11;;;;;;;5.78;1.80;;;;;;;;;;5074508;28;20067;-64
2022/08/09 14:04:38;;;;;;;5.15;1.73;;;;;;;;;;5073572;28;20020;-64
2022/08/09 14:07:04;;;;;;;2.75;1.63;;;;;;;;;;5074784;28;20047;-64
2022/08/09 14:09:30;;;;;;;3.53;1.75;;;;;;;;;;5073117;28;20024;-64
2022/08/09 14:11:58;;;;;;;2.42;1.60;;;;;;;;;;5074729;28;20024;-64
2022/08/09 14:14:24;;;;;;;4.63;2.13;;;;;;;;;;5073000;28;20025;-64
2022/08/09 14:16:50;;;;;;;3.17;1.95;;;;;;;;;;5074663;28;20060;-64
2022/08/09 14:19:17;;;;;;;3.22;1.80;;;;;;;;;;5074588;28;20021;-64
2022/08/09 14:21:43;;;;;;;3.70;1.77;;;;;;;;;;5073992;28;20032;-64
2022/08/09 14:24:13;;;;;;;3.47;2.03;;;;;;;;;;5073210;28;20448;-63
2022/08/09 14:26:40;;;;;;;5.47;1.90;;;;;;;;;;5074522;28;20030;-63
2022/08/09 14:29:14;;;;;;;3.90;1.60;;;;;;;;;;5074135;28;20036;-65
2022/08/09 14:31:40;;;;;;;3.15;1.80;;;;;;;;;;5073023;28;20035;-64
2022/08/09 14:34:06;;;;;;;3.20;1.85;;;;;;;;;;5074272;28;20056;-64
2022/08/09 14:36:32;;;;;;;3.08;1.50;;;;;;;;;;5072542;28;20028;-63
2022/08/09 14:38:59;;;;;;;3.90;1.95;;;;;;;;;;5074406;28;20021;-64
2022/08/09 14:41:25;;;;;;;4.00;1.75;;;;;;;;;;5074015;28;20106;-64
2022/08/09 14:43:51;;;;;;;5.50;1.73;;;;;;;;;;5073677;28;20354;-64
2022/08/09 14:46:17;;;;;;;4.00;1.92;;;;;;;;;;5072789;28;20051;-64
2022/08/09 14:48:43;;;;;;;4.20;1.60;;;;;;;;;;5072646;28;20040;-64
2022/08/09 14:51:10;;;;;;;3.15;1.70;;;;;;;;;;5073237;28;20153;-64
2022/08/09 14:53:36;;;;;;;4.95;1.60;;;;;;;;;;5073998;28;20020;-64
2022/08/09 14:56:04;;;;;;;4.60;2.00;;;;;;;;;;5073942;28;20036;-64
2022/08/09 14:58:30;;;;;;;3.03;1.55;;;;;;;;;;5073450;28;20077;-64
2022/08/09 15:00:57;;;;;;;1.88;1.35;;;;;;;;;;5073840;28;20388;-64
2022/08/09 15:03:24;;;;;;;1.80;1.40;;;;;;;;;;5073736;28;20025;-64
2022/08/09 15:05:50;;;;;;;2.03;1.45;;;;;;;;;;5072089;28;20561;-64
2022/08/09 15:08:16;;;;;;;3.35;1.55;;;;;;;;;;5074050;28;20028;-64
2022/08/09 15:10:43;;;;;;;5.15;1.40;;;;;;;;;;5073414;28;20103;-63
2022/08/09 15:13:09;;;;;;;3.83;2.10;;;;;;;;;;5073772;28;20427;-65
2022/08/09 15:15:36;;;;;;;1.58;1.42;;;;;;;;;;5073822;28;20519;-63
2022/08/09 15:18:02;;;;;;;4.57;1.63;;;;;;;;;;5073161;28;20020;-63
2022/08/09 15:20:28;;;;;;;3.90;1.77;;;;;;;;;;5072249;28;20050;-63
2022/08/09 15:22:55;;;;;;;3.28;1.70;;;;;;;;;;5073519;28;20133;-63
2022/08/09 15:25:21;;;;;;;3.25;1.73;;;;;;;;;;5073112;28;20059;-63
2022/08/09 15:27:47;;;;;;;3.15;1.63;;;;;;;;;;5072211;28;20477;-64
2022/08/09 15:30:13;;;;;;;2.63;1.30;;;;;;;;;;5072218;28;20490;-65
2022/08/09 15:32:39;;;;;;;3.60;1.50;;;;;;;;;;5073212;28;20025;-63
2022/08/09 15:35:06;;;;;;;1.95;1.33;;;;;;;;;;5072145;28;20104;-63
2022/08/09 15:37:38;;;;;;;5.18;1.67;;;;;;;;;;5072148;28;20031;-63
2022/08/09 15:40:06;;;;;;;4.55;2.60;;;;;;;;;;5072776;28;20040;-65
2022/08/09 15:42:33;;;;;;;6.95;2.80;;;;;;;;;;5073489;28;20020;-63
2022/08/09 15:45:02;;;;;;;5.38;2.10;;;;;;;;;;5073275;28;20016;-63
2022/08/09 15:47:28;;;;;;;2.45;1.73;;;;;;;;;;5072930;28;20047;-64
2022/08/09 15:49:55;;;;;;;5.75;2.25;;;;;;;;;;5073287;28;20405;-63
2022/08/09 15:52:21;;;;;;;3.70;2.05;;;;;;;;;;5073202;28;20372;-64
2022/08/09 15:54:47;;;;;;;5.20;2.53;;;;;;;;;;5072834;28;20067;-63
2022/08/09 15:57:13;;;;;;;5.53;2.40;;;;;;;;;;5073581;28;20423;-63
2022/08/09 15:59:40;;;;;;;3.08;2.00;;;;;;;;;;5071847;28;20082;-63
2022/08/09 16:02:06;;;;;;;2.85;2.00;;;;;;;;;;5073175;28;20047;-65
2022/08/09 16:04:32;;;;;;;5.03;1.90;;;;;;;;;;5075949;28;20016;-63
2022/08/09 16:06:58;;;;;;;5.60;2.30;;;;;;;;;;5075402;28;20079;-63
2022/08/09 16:09:24;;;;;;;6.43;2.50;;;;;;;;;;5075765;28;20024;-63
2022/08/09 16:11:50;;;;;;;5.90;2.35;;;;;;;;;;5077082;28;20033;-63
2022/08/09 16:14:17;;;;;;;4.30;2.72;;;;;;;;;;5076618;28;20021;-64
2022/08/09 16:16:44;;;;;;;4.18;2.30;;;;;;;;;;5076889;28;20028;-63
2022/08/09 16:19:10;;;;;;;3.08;2.20;;;;;;;;;;5075573;28;20028;-63
2022/08/09 16:21:37;;;;;;;6.88;2.28;;;;;;;;;;5076443;28;20078;-63
2022/08/09 16:24:04;;;;;;;4.95;2.70;;;;;;;;;;5076774;28;20029;-64
2022/08/09 16:26:30;;;;;;;3.60;2.08;;;;;;;;;;5076819;28;20024;-64